Terminal Aerodrome Forecast
Issued by NWS Buffalo, NY

Home | Current Version | Previous Version | Text Only | Print | Product List | Glossary On
Versions: 1 2 3 4 5 6 7 8 9 10 11 12 13 14 15 16 17 18 19 20 21 22
000
FTUS41 KBUF 182326
TAFROC
TAF
KROC 182326Z 1900/1924 25011KT P6SM FEW250
     FM190300 24007KT P6SM SCT040
     FM191400 25010G16KT P6SM SCT035
     FM191700 26013KT P6SM BKN035=

USA.gov is the U.S. government's official web portal to all federal, state and local government web resources and services.